sensor_id;sensor_type;location;lat;lon;timestamp;temperature;humidity
54409;DHT22;40315;48.620;9.828;2023-08-06T00:00:06;16.20;99.90
54409;DHT22;40315;48.620;9.828;2023-08-06T00:02:34;16.20;99.90
54409;DHT22;40315;48.620;9.828;2023-08-06T00:05:02;16.20;99.90
54409;DHT22;40315;48.620;9.828;2023-08-06T00:07:29;16.30;99.90
54409;DHT22;40315;48.620;9.828;2023-08-06T00:09:56;16.30;99.90
54409;DHT22;40315;48.620;9.828;2023-08-06T00:12:24;16.20;99.90
54409;DHT22;40315;48.620;9.828;2023-08-06T00:14:51;16.20;99.90
54409;DHT22;40315;48.620;9.828;2023-08-06T00:17:19;16.30;99.90
54409;DHT22;40315;48.620;9.828;2023-08-06T00:19:46;16.10;99.90
54409;DHT22;40315;48.620;9.828;2023-08-06T00:22:13;16.00;99.90
54409;DHT22;40315;48.620;9.828;2023-08-06T00:24:40;16.00;99.90
54409;DHT22;40315;48.620;9.828;2023-08-06T00:27:07;16.10;99.90
54409;DHT22;40315;48.620;9.828;2023-08-06T00:29:35;16.20;99.90
54409;DHT22;40315;48.620;9.828;2023-08-06T00:32:02;16.30;99.90
54409;DHT22;40315;48.620;9.828;2023-08-06T00:34:34;16.00;99.90
54409;DHT22;40315;48.620;9.828;2023-08-06T00:37:02;15.90;99.90
54409;DHT22;40315;48.620;9.828;2023-08-06T00:39:29;15.90;99.90
54409;DHT22;40315;48.620;9.828;2023-08-06T00:41:56;15.80;99.90
54409;DHT22;40315;48.620;9.828;2023-08-06T00:44:23;15.70;99.90
54409;DHT22;40315;48.620;9.828;2023-08-06T00:46:52;15.60;99.90
54409;DHT22;40315;48.620;9.828;2023-08-06T00:49:19;15.70;99.90
54409;DHT22;40315;48.620;9.828;2023-08-06T00:51:46;15.80;99.90
54409;DHT22;40315;48.620;9.828;2023-08-06T00:54:14;15.70;99.90
54409;DHT22;40315;48.620;9.828;2023-08-06T00:56:44;15.70;99.90
54409;DHT22;40315;48.620;9.828;2023-08-06T00:59:14;15.90;99.90
54409;DHT22;40315;48.620;9.828;2023-08-06T01:01:41;15.80;99.90
54409;DHT22;40315;48.620;9.828;2023-08-06T01:04:10;15.80;99.90
54409;DHT22;40315;48.620;9.828;2023-08-06T01:06:43;15.80;99.90
54409;DHT22;40315;48.620;9.828;2023-08-06T01:09:21;15.70;99.90
54409;DHT22;40315;48.620;9.828;2023-08-06T01:11:59;15.70;99.90
54409;DHT22;40315;48.620;9.828;2023-08-06T01:14:32;15.60;99.90
54409;DHT22;40315;48.620;9.828;2023-08-06T01:17:01;15.60;99.90
54409;DHT22;40315;48.620;9.828;2023-08-06T01:19:33;15.60;99.90
54409;DHT22;40315;48.620;9.828;2023-08-06T01:22:01;15.60;99.90
54409;DHT22;40315;48.620;9.828;2023-08-06T01:24:28;15.70;99.90
54409;DHT22;40315;48.620;9.828;2023-08-06T01:27:01;15.80;99.90
54409;DHT22;40315;48.620;9.828;2023-08-06T01:29:35;15.80;99.90
54409;DHT22;40315;48.620;9.828;2023-08-06T01:32:08;15.70;99.90
54409;DHT22;40315;48.620;9.828;2023-08-06T01:34:40;15.70;99.90
54409;DHT22;40315;48.620;9.828;2023-08-06T01:37:11;15.70;99.90
54409;DHT22;40315;48.620;9.828;2023-08-06T01:39:40;15.50;99.90
54409;DHT22;40315;48.620;9.828;2023-08-06T01:42:11;15.30;99.90
54409;DHT22;40315;48.620;9.828;2023-08-06T01:44:39;15.10;99.90
54409;DHT22;40315;48.620;9.828;2023-08-06T01:47:06;15.10;99.90
54409;DHT22;40315;48.620;9.828;2023-08-06T01:53:05;15.30;99.90
54409;DHT22;40315;48.620;9.828;2023-08-06T01:55:32;15.20;99.90
54409;DHT22;40315;48.620;9.828;2023-08-06T01:57:59;15.20;99.90
54409;DHT22;40315;48.620;9.828;2023-08-06T02:00:29;15.40;99.90
54409;DHT22;40315;48.620;9.828;2023-08-06T02:02:56;15.40;99.90
54409;DHT22;40315;48.620;9.828;2023-08-06T02:05:25;15.30;99.90
54409;DHT22;40315;48.620;9.828;2023-08-06T02:07:52;15.10;99.90
54409;DHT22;40315;48.620;9.828;2023-08-06T02:10:20;15.00;99.90
54409;DHT22;40315;48.620;9.828;2023-08-06T02:12:47;15.00;99.90
54409;DHT22;40315;48.620;9.828;2023-08-06T02:15:14;15.10;99.90
54409;DHT22;40315;48.620;9.828;2023-08-06T02:17:43;15.10;99.90
54409;DHT22;40315;48.620;9.828;2023-08-06T02:20:13;15.20;99.90
54409;DHT22;40315;48.620;9.828;2023-08-06T02:22:42;15.10;99.90
54409;DHT22;40315;48.620;9.828;2023-08-06T02:25:09;14.90;99.90
54409;DHT22;40315;48.620;9.828;2023-08-06T02:27:38;15.00;99.90
54409;DHT22;40315;48.620;9.828;2023-08-06T02:30:07;15.00;99.90
54409;DHT22;40315;48.620;9.828;2023-08-06T02:32:34;14.90;99.90
54409;DHT22;40315;48.620;9.828;2023-08-06T02:35:01;14.90;99.90
54409;DHT22;40315;48.620;9.828;2023-08-06T02:37:28;14.20;99.90
54409;DHT22;40315;48.620;9.828;2023-08-06T02:40:00;15.10;99.90
54409;DHT22;40315;48.620;9.828;2023-08-06T02:42:27;14.90;99.90
54409;DHT22;40315;48.620;9.828;2023-08-06T02:44:56;14.80;99.90
54409;DHT22;40315;48.620;9.828;2023-08-06T02:47:23;14.60;99.90
54409;DHT22;40315;48.620;9.828;2023-08-06T02:49:50;14.50;99.90
54409;DHT22;40315;48.620;9.828;2023-08-06T02:52:19;14.50;99.90
54409;DHT22;40315;48.620;9.828;2023-08-06T02:54:46;14.40;99.90
54409;DHT22;40315;48.620;9.828;2023-08-06T02:57:16;14.20;99.90
54409;DHT22;40315;48.620;9.828;2023-08-06T02:59:43;14.20;99.90
54409;DHT22;40315;48.620;9.828;2023-08-06T03:02:16;14.40;99.90
54409;DHT22;40315;48.620;9.828;2023-08-06T03:04:55;14.30;99.90
54409;DHT22;40315;48.620;9.828;2023-08-06T03:07:26;14.50;99.90
54409;DHT22;40315;48.620;9.828;2023-08-06T03:09:58;14.40;99.90
54409;DHT22;40315;48.620;9.828;2023-08-06T03:12:26;14.20;99.90
54409;DHT22;40315;48.620;9.828;2023-08-06T03:14:54;14.10;99.90
54409;DHT22;40315;48.620;9.828;2023-08-06T03:19:50;14.00;99.90
54409;DHT22;40315;48.620;9.828;2023-08-06T03:22:27;14.10;99.90
54409;DHT22;40315;48.620;9.828;2023-08-06T03:24:54;14.20;99.90
54409;DHT22;40315;48.620;9.828;2023-08-06T03:27:23;14.30;99.90
54409;DHT22;40315;48.620;9.828;2023-08-06T03:29:51;14.00;99.90
54409;DHT22;40315;48.620;9.828;2023-08-06T03:32:22;13.90;99.90
54409;DHT22;40315;48.620;9.828;2023-08-06T03:34:52;14.00;99.90
54409;DHT22;40315;48.620;9.828;2023-08-06T03:37:21;14.00;99.90
54409;DHT22;40315;48.620;9.828;2023-08-06T03:39:50;14.00;99.90
54409;DHT22;40315;48.620;9.828;2023-08-06T03:42:18;13.80;99.90
54409;DHT22;40315;48.620;9.828;2023-08-06T03:44:47;13.80;99.90
54409;DHT22;40315;48.620;9.828;2023-08-06T03:47:14;13.80;99.90
54409;DHT22;40315;48.620;9.828;2023-08-06T03:49:43;13.80;99.90
54409;DHT22;40315;48.620;9.828;2023-08-06T03:52:12;14.00;99.90
54409;DHT22;40315;48.620;9.828;2023-08-06T03:57:08;14.00;99.90
54409;DHT22;40315;48.620;9.828;2023-08-06T03:59:36;14.40;99.90
54409;DHT22;40315;48.620;9.828;2023-08-06T04:02:06;14.10;99.90
54409;DHT22;40315;48.620;9.828;2023-08-06T04:04:33;14.10;99.90
54409;DHT22;40315;48.620;9.828;2023-08-06T04:07:04;14.00;99.90
54409;DHT22;40315;48.620;9.828;2023-08-06T04:09:31;13.80;99.90
54409;DHT22;40315;48.620;9.828;2023-08-06T04:11:58;13.70;99.90
54409;DHT22;40315;48.620;9.828;2023-08-06T04:14:30;13.60;99.90
54409;DHT22;40315;48.620;9.828;2023-08-06T04:16:57;13.60;99.90
54409;DHT22;40315;48.620;9.828;2023-08-06T04:19:24;13.50;99.90
54409;DHT22;40315;48.620;9.828;2023-08-06T04:21:51;13.50;99.90
54409;DHT22;40315;48.620;9.828;2023-08-06T04:24:24;13.50;99.90
54409;DHT22;40315;48.620;9.828;2023-08-06T04:26:51;13.60;99.90
54409;DHT22;40315;48.620;9.828;2023-08-06T04:29:21;13.60;99.90
54409;DHT22;40315;48.620;9.828;2023-08-06T04:31:48;13.70;99.90
54409;DHT22;40315;48.620;9.828;2023-08-06T04:34:16;13.80;99.90
54409;DHT22;40315;48.620;9.828;2023-08-06T04:36:42;13.90;99.90
54409;DHT22;40315;48.620;9.828;2023-08-06T04:39:09;13.90;99.90
54409;DHT22;40315;48.620;9.828;2023-08-06T04:44:06;13.90;99.90
54409;DHT22;40315;48.620;9.828;2023-08-06T04:46:33;14.30;99.90
54409;DHT22;40315;48.620;9.828;2023-08-06T04:49:00;13.90;99.90
54409;DHT22;40315;48.620;9.828;2023-08-06T04:51:26;13.90;99.90
54409;DHT22;40315;48.620;9.828;2023-08-06T04:56:23;13.90;99.90
54409;DHT22;40315;48.620;9.828;2023-08-06T05:01:19;13.90;99.90
54409;DHT22;40315;48.620;9.828;2023-08-06T05:03:48;13.90;99.90
54409;DHT22;40315;48.620;9.828;2023-08-06T05:06:15;13.90;99.90
54409;DHT22;40315;48.620;9.828;2023-08-06T05:08:42;13.90;99.90
54409;DHT22;40315;48.620;9.828;2023-08-06T05:11:09;13.90;99.90
54409;DHT22;40315;48.620;9.828;2023-08-06T05:13:36;13.90;99.90
54409;DHT22;40315;48.620;9.828;2023-08-06T05:18:32;13.90;99.90
54409;DHT22;40315;48.620;9.828;2023-08-06T05:21:00;14.20;99.90
54409;DHT22;40315;48.620;9.828;2023-08-06T05:23:30;13.70;99.90
54409;DHT22;40315;48.620;9.828;2023-08-06T05:25:59;13.60;99.90
54409;DHT22;40315;48.620;9.828;2023-08-06T05:28:26;13.60;99.90
54409;DHT22;40315;48.620;9.828;2023-08-06T05:30:53;13.80;99.90
54409;DHT22;40315;48.620;9.828;2023-08-06T05:33:24;13.80;99.90
54409;DHT22;40315;48.620;9.828;2023-08-06T05:35:52;14.80;99.90
54409;DHT22;40315;48.620;9.828;2023-08-06T05:38:21;13.80;99.90
54409;DHT22;40315;48.620;9.828;2023-08-06T05:40:50;13.80;99.90
54409;DHT22;40315;48.620;9.828;2023-08-06T05:43:17;13.80;99.90
54409;DHT22;40315;48.620;9.828;2023-08-06T05:45:44;13.90;99.90
54409;DHT22;40315;48.620;9.828;2023-08-06T05:48:12;14.00;99.90
54409;DHT22;40315;48.620;9.828;2023-08-06T05:53:10;14.10;99.90
54409;DHT22;40315;48.620;9.828;2023-08-06T05:55:37;14.20;99.90
54409;DHT22;40315;48.620;9.828;2023-08-06T05:58:07;14.30;99.90
54409;DHT22;40315;48.620;9.828;2023-08-06T06:00:38;15.90;99.90
54409;DHT22;40315;48.620;9.828;2023-08-06T06:03:06;14.40;99.90
54409;DHT22;40315;48.620;9.828;2023-08-06T06:05:37;14.30;99.90
54409;DHT22;40315;48.620;9.828;2023-08-06T06:08:09;14.40;99.90
54409;DHT22;40315;48.620;9.828;2023-08-06T06:10:40;14.50;99.90
54409;DHT22;40315;48.620;9.828;2023-08-06T06:13:10;15.70;99.90
54409;DHT22;40315;48.620;9.828;2023-08-06T06:15:39;14.80;99.90
54409;DHT22;40315;48.620;9.828;2023-08-06T06:18:09;14.90;99.90
54409;DHT22;40315;48.620;9.828;2023-08-06T06:20:36;14.80;99.90
54409;DHT22;40315;48.620;9.828;2023-08-06T06:23:05;14.80;99.90
54409;DHT22;40315;48.620;9.828;2023-08-06T06:25:34;14.80;99.90
54409;DHT22;40315;48.620;9.828;2023-08-06T06:35:26;15.20;99.90
54409;DHT22;40315;48.620;9.828;2023-08-06T06:37:53;15.60;99.90
54409;DHT22;40315;48.620;9.828;2023-08-06T06:40:20;16.00;99.90
54409;DHT22;40315;48.620;9.828;2023-08-06T06:42:49;16.00;99.90
54409;DHT22;40315;48.620;9.828;2023-08-06T06:45:16;16.00;99.90
54409;DHT22;40315;48.620;9.828;2023-08-06T06:47:43;15.90;99.90
54409;DHT22;40315;48.620;9.828;2023-08-06T06:50:10;15.70;99.90
54409;DHT22;40315;48.620;9.828;2023-08-06T06:52:37;15.50;99.90
54409;DHT22;40315;48.620;9.828;2023-08-06T06:55:05;15.40;99.90
54409;DHT22;40315;48.620;9.828;2023-08-06T06:57:32;15.30;99.90
54409;DHT22;40315;48.620;9.828;2023-08-06T07:09:51;15.10;99.90
54409;DHT22;40315;48.620;9.828;2023-08-06T07:22:19;15.10;99.90
54409;DHT22;40315;48.620;9.828;2023-08-06T07:27:17;15.10;99.90
54409;DHT22;40315;48.620;9.828;2023-08-06T07:29:44;15.00;99.90
54409;DHT22;40315;48.620;9.828;2023-08-06T07:32:12;14.90;99.90
54409;DHT22;40315;48.620;9.828;2023-08-06T07:37:12;14.90;99.90
54409;DHT22;40315;48.620;9.828;2023-08-06T07:49:33;15.80;99.90
54409;DHT22;40315;48.620;9.828;2023-08-06T07:52:01;15.80;99.90
54409;DHT22;40315;48.620;9.828;2023-08-06T07:54:29;15.80;99.90
54409;DHT22;40315;48.620;9.828;2023-08-06T07:56:56;15.80;99.90
54409;DHT22;40315;48.620;9.828;2023-08-06T07:59:23;15.80;99.90
54409;DHT22;40315;48.620;9.828;2023-08-06T08:01:50;15.80;99.90
54409;DHT22;40315;48.620;9.828;2023-08-06T08:04:17;15.80;99.90
54409;DHT22;40315;48.620;9.828;2023-08-06T08:09:12;15.60;99.90
54409;DHT22;40315;48.620;9.828;2023-08-06T08:11:40;15.50;99.90
54409;DHT22;40315;48.620;9.828;2023-08-06T08:14:12;15.20;99.90
54409;DHT22;40315;48.620;9.828;2023-08-06T08:16:42;15.20;99.90
54409;DHT22;40315;48.620;9.828;2023-08-06T08:19:11;15.20;99.90
54409;DHT22;40315;48.620;9.828;2023-08-06T08:21:38;15.10;99.90
54409;DHT22;40315;48.620;9.828;2023-08-06T08:24:08;14.90;99.90
54409;DHT22;40315;48.620;9.828;2023-08-06T08:26:37;14.80;99.90
54409;DHT22;40315;48.620;9.828;2023-08-06T08:29:04;14.90;99.90
54409;DHT22;40315;48.620;9.828;2023-08-06T08:31:31;15.10;99.90
54409;DHT22;40315;48.620;9.828;2023-08-06T08:34:04;14.90;99.90
54409;DHT22;40315;48.620;9.828;2023-08-06T08:36:34;14.90;99.90
54409;DHT22;40315;48.620;9.828;2023-08-06T08:39:01;14.80;99.90
54409;DHT22;40315;48.620;9.828;2023-08-06T08:41:30;14.90;99.90
54409;DHT22;40315;48.620;9.828;2023-08-06T08:46:27;15.20;99.90
54409;DHT22;40315;48.620;9.828;2023-08-06T08:48:56;15.10;99.90
54409;DHT22;40315;48.620;9.828;2023-08-06T08:53:53;15.40;99.90
54409;DHT22;40315;48.620;9.828;2023-08-06T08:56:22;15.40;99.90
54409;DHT22;40315;48.620;9.828;2023-08-06T09:03:48;15.80;99.90
54409;DHT22;40315;48.620;9.828;2023-08-06T09:06:19;15.80;99.90
54409;DHT22;40315;48.620;9.828;2023-08-06T09:08:53;15.80;99.90
54409;DHT22;40315;48.620;9.828;2023-08-06T09:11:26;15.70;99.90
54409;DHT22;40315;48.620;9.828;2023-08-06T09:14:04;15.80;99.90
54409;DHT22;40315;48.620;9.828;2023-08-06T09:16:34;15.80;99.90
54409;DHT22;40315;48.620;9.828;2023-08-06T09:19:07;15.60;99.90
54409;DHT22;40315;48.620;9.828;2023-08-06T09:21:37;15.60;99.90
54409;DHT22;40315;48.620;9.828;2023-08-06T09:24:12;15.50;99.90
54409;DHT22;40315;48.620;9.828;2023-08-06T09:26:40;15.50;99.90
54409;DHT22;40315;48.620;9.828;2023-08-06T09:29:09;15.60;99.90
54409;DHT22;40315;48.620;9.828;2023-08-06T09:31:41;15.60;99.90
54409;DHT22;40315;48.620;9.828;2023-08-06T09:34:14;15.50;99.90
54409;DHT22;40315;48.620;9.828;2023-08-06T09:36:42;15.50;99.90
54409;DHT22;40315;48.620;9.828;2023-08-06T09:39:14;15.50;99.90
54409;DHT22;40315;48.620;9.828;2023-08-06T09:41:44;15.40;99.90
54409;DHT22;40315;48.620;9.828;2023-08-06T09:44:20;15.40;99.90
54409;DHT22;40315;48.620;9.828;2023-08-06T09:46:51;15.30;99.90
54409;DHT22;40315;48.620;9.828;2023-08-06T09:49:20;15.40;99.90
54409;DHT22;40315;48.620;9.828;2023-08-06T09:54:23;15.40;99.90
54409;DHT22;40315;48.620;9.828;2023-08-06T09:56:52;15.50;99.90
54409;DHT22;40315;48.620;9.828;2023-08-06T09:59:24;15.60;99.90
54409;DHT22;40315;48.620;9.828;2023-08-06T10:01:54;15.90;99.90
54409;DHT22;40315;48.620;9.828;2023-08-06T10:04:22;17.00;99.90
54409;DHT22;40315;48.620;9.828;2023-08-06T10:06:50;16.20;99.90
54409;DHT22;40315;48.620;9.828;2023-08-06T10:09:19;16.30;99.90
54409;DHT22;40315;48.620;9.828;2023-08-06T10:11:49;16.30;99.90
54409;DHT22;40315;48.620;9.828;2023-08-06T10:14:21;16.30;99.90
54409;DHT22;40315;48.620;9.828;2023-08-06T10:16:50;16.50;99.90
54409;DHT22;40315;48.620;9.828;2023-08-06T10:19:19;16.60;99.90
54409;DHT22;40315;48.620;9.828;2023-08-06T10:22:09;16.70;99.90
54409;DHT22;40315;48.620;9.828;2023-08-06T10:24:50;16.80;99.90
54409;DHT22;40315;48.620;9.828;2023-08-06T10:27:22;16.80;99.90
54409;DHT22;40315;48.620;9.828;2023-08-06T10:29:51;16.70;99.90
54409;DHT22;40315;48.620;9.828;2023-08-06T10:32:19;16.70;99.90
54409;DHT22;40315;48.620;9.828;2023-08-06T10:34:56;16.60;99.90
54409;DHT22;40315;48.620;9.828;2023-08-06T10:37:24;16.40;99.90
54409;DHT22;40315;48.620;9.828;2023-08-06T10:39:54;16.30;99.90
54409;DHT22;40315;48.620;9.828;2023-08-06T10:42:27;16.20;99.90
54409;DHT22;40315;48.620;9.828;2023-08-06T10:45:16;16.10;99.90
54409;DHT22;40315;48.620;9.828;2023-08-06T10:47:44;16.10;99.90
54409;DHT22;40315;48.620;9.828;2023-08-06T10:52:47;16.20;99.90
54409;DHT22;40315;48.620;9.828;2023-08-06T10:55:24;16.20;99.90
54409;DHT22;40315;48.620;9.828;2023-08-06T10:57:51;16.00;99.90
54409;DHT22;40315;48.620;9.828;2023-08-06T11:02:54;15.70;99.90
54409;DHT22;40315;48.620;9.828;2023-08-06T11:08:01;15.50;99.90
54409;DHT22;40315;48.620;9.828;2023-08-06T11:10:32;15.30;99.90
54409;DHT22;40315;48.620;9.828;2023-08-06T11:13:01;15.20;99.90
54409;DHT22;40315;48.620;9.828;2023-08-06T11:15:29;15.20;99.90
54409;DHT22;40315;48.620;9.828;2023-08-06T11:17:59;15.20;99.90
54409;DHT22;40315;48.620;9.828;2023-08-06T11:20:30;15.30;99.90
54409;DHT22;40315;48.620;9.828;2023-08-06T11:22:57;15.40;99.90
54409;DHT22;40315;48.620;9.828;2023-08-06T11:25:24;15.50;99.90
54409;DHT22;40315;48.620;9.828;2023-08-06T11:27:51;15.50;99.90
54409;DHT22;40315;48.620;9.828;2023-08-06T11:30:21;15.60;99.90
54409;DHT22;40315;48.620;9.828;2023-08-06T11:32:49;15.60;99.90
54409;DHT22;40315;48.620;9.828;2023-08-06T11:37:50;15.50;99.90
54409;DHT22;40315;48.620;9.828;2023-08-06T11:40:17;15.60;99.90
54409;DHT22;40315;48.620;9.828;2023-08-06T11:42:47;15.80;99.90
54409;DHT22;40315;48.620;9.828;2023-08-06T11:45:16;15.90;99.90
54409;DHT22;40315;48.620;9.828;2023-08-06T11:47:50;15.90;99.90
54409;DHT22;40315;48.620;9.828;2023-08-06T11:50:22;15.90;99.90
54409;DHT22;40315;48.620;9.828;2023-08-06T11:52:56;15.80;99.90
54409;DHT22;40315;48.620;9.828;2023-08-06T11:55:24;15.90;99.90
54409;DHT22;40315;48.620;9.828;2023-08-06T11:57:51;15.80;99.90
54409;DHT22;40315;48.620;9.828;2023-08-06T12:05:34;16.10;99.90
54409;DHT22;40315;48.620;9.828;2023-08-06T12:08:06;16.00;99.90
54409;DHT22;40315;48.620;9.828;2023-08-06T12:19:12;15.40;99.90
54409;DHT22;40315;48.620;9.828;2023-08-06T12:26:45;15.20;99.90
54409;DHT22;40315;48.620;9.828;2023-08-06T12:29:12;15.00;99.90
54409;DHT22;40315;48.620;9.828;2023-08-06T12:31:39;15.00;99.90
54409;DHT22;40315;48.620;9.828;2023-08-06T12:34:06;14.90;99.90
54409;DHT22;40315;48.620;9.828;2023-08-06T12:36:33;14.90;99.90
54409;DHT22;40315;48.620;9.828;2023-08-06T12:39:00;14.80;99.90
54409;DHT22;40315;48.620;9.828;2023-08-06T12:44:08;14.50;99.90
54409;DHT22;40315;48.620;9.828;2023-08-06T12:46:38;14.60;99.90
54409;DHT22;40315;48.620;9.828;2023-08-06T12:49:07;14.60;99.90
54409;DHT22;40315;48.620;9.828;2023-08-06T12:51:37;14.60;99.90
54409;DHT22;40315;48.620;9.828;2023-08-06T12:54:06;14.60;99.90
54409;DHT22;40315;48.620;9.828;2023-08-06T12:56:35;14.60;99.90
54409;DHT22;40315;48.620;9.828;2023-08-06T12:59:04;14.40;99.90
54409;DHT22;40315;48.620;9.828;2023-08-06T13:01:40;14.30;99.90
54409;DHT22;40315;48.620;9.828;2023-08-06T13:04:13;14.20;99.90
54409;DHT22;40315;48.620;9.828;2023-08-06T13:06:42;14.10;99.90
54409;DHT22;40315;48.620;9.828;2023-08-06T13:09:09;14.10;99.90
54409;DHT22;40315;48.620;9.828;2023-08-06T13:11:37;14.00;99.90
54409;DHT22;40315;48.620;9.828;2023-08-06T13:14:08;13.90;99.90
54409;DHT22;40315;48.620;9.828;2023-08-06T13:16:38;13.90;99.90
54409;DHT22;40315;48.620;9.828;2023-08-06T13:19:08;14.00;99.90
54409;DHT22;40315;48.620;9.828;2023-08-06T13:21:58;13.90;99.90
54409;DHT22;40315;48.620;9.828;2023-08-06T13:24:26;13.90;99.90
54409;DHT22;40315;48.620;9.828;2023-08-06T13:26:54;13.90;99.90
54409;DHT22;40315;48.620;9.828;2023-08-06T13:29:25;13.90;99.90
54409;DHT22;40315;48.620;9.828;2023-08-06T13:31:55;13.90;99.90
54409;DHT22;40315;48.620;9.828;2023-08-06T13:34:22;13.80;99.90
54409;DHT22;40315;48.620;9.828;2023-08-06T13:36:49;13.80;99.90
54409;DHT22;40315;48.620;9.828;2023-08-06T13:39:16;13.80;99.90
54409;DHT22;40315;48.620;9.828;2023-08-06T13:41:44;14.00;99.90
54409;DHT22;40315;48.620;9.828;2023-08-06T13:44:11;14.00;99.90
54409;DHT22;40315;48.620;9.828;2023-08-06T13:49:13;14.00;99.90
54409;DHT22;40315;48.620;9.828;2023-08-06T13:51:43;13.90;99.90
54409;DHT22;40315;48.620;9.828;2023-08-06T13:54:12;13.80;99.90
54409;DHT22;40315;48.620;9.828;2023-08-06T13:56:41;13.80;99.90
54409;DHT22;40315;48.620;9.828;2023-08-06T13:59:08;13.80;99.90
54409;DHT22;40315;48.620;9.828;2023-08-06T14:01:40;13.90;99.90
54409;DHT22;40315;48.620;9.828;2023-08-06T14:04:07;14.00;99.90
54409;DHT22;40315;48.620;9.828;2023-08-06T14:06:35;14.20;99.90
54409;DHT22;40315;48.620;9.828;2023-08-06T14:09:05;14.30;99.90
54409;DHT22;40315;48.620;9.828;2023-08-06T14:11:38;14.50;99.90
54409;DHT22;40315;48.620;9.828;2023-08-06T14:14:10;14.80;99.90
54409;DHT22;40315;48.620;9.828;2023-08-06T14:16:42;14.90;99.90
54409;DHT22;40315;48.620;9.828;2023-08-06T14:19:08;13.80;99.90
54409;DHT22;40315;48.620;9.828;2023-08-06T14:21:38;14.80;99.90
54409;DHT22;40315;48.620;9.828;2023-08-06T14:24:13;14.90;99.90
54409;DHT22;40315;48.620;9.828;2023-08-06T14:26:40;14.70;99.90
54409;DHT22;40315;48.620;9.828;2023-08-06T14:29:07;14.60;99.90
54409;DHT22;40315;48.620;9.828;2023-08-06T14:31:34;14.50;99.90
54409;DHT22;40315;48.620;9.828;2023-08-06T14:34:05;14.50;99.90
54409;DHT22;40315;48.620;9.828;2023-08-06T14:36:37;14.40;99.90
54409;DHT22;40315;48.620;9.828;2023-08-06T14:39:06;14.50;99.90
54409;DHT22;40315;48.620;9.828;2023-08-06T14:41:33;14.60;99.90
54409;DHT22;40315;48.620;9.828;2023-08-06T14:44:00;14.60;99.90
54409;DHT22;40315;48.620;9.828;2023-08-06T14:46:30;14.90;99.90
54409;DHT22;40315;48.620;9.828;2023-08-06T14:48:59;15.20;99.90
54409;DHT22;40315;48.620;9.828;2023-08-06T14:51:27;15.00;99.90
54409;DHT22;40315;48.620;9.828;2023-08-06T14:53:59;15.00;99.90
54409;DHT22;40315;48.620;9.828;2023-08-06T14:59:00;15.00;99.90
54409;DHT22;40315;48.620;9.828;2023-08-06T15:01:29;14.90;99.90
54409;DHT22;40315;48.620;9.828;2023-08-06T15:04:10;14.80;99.90
54409;DHT22;40315;48.620;9.828;2023-08-06T15:06:38;14.80;99.90
54409;DHT22;40315;48.620;9.828;2023-08-06T15:09:07;14.90;99.90
54409;DHT22;40315;48.620;9.828;2023-08-06T15:14:06;14.80;99.90
54409;DHT22;40315;48.620;9.828;2023-08-06T15:16:33;14.70;99.90
54409;DHT22;40315;48.620;9.828;2023-08-06T15:21:46;14.40;99.90
54409;DHT22;40315;48.620;9.828;2023-08-06T15:24:13;14.40;99.90
54409;DHT22;40315;48.620;9.828;2023-08-06T15:26:39;14.50;99.90
54409;DHT22;40315;48.620;9.828;2023-08-06T15:29:06;14.50;99.90
54409;DHT22;40315;48.620;9.828;2023-08-06T15:31:37;14.30;99.90
54409;DHT22;40315;48.620;9.828;2023-08-06T15:34:08;14.30;99.90
54409;DHT22;40315;48.620;9.828;2023-08-06T15:36:38;14.30;99.90
54409;DHT22;40315;48.620;9.828;2023-08-06T15:39:08;14.20;99.90
54409;DHT22;40315;48.620;9.828;2023-08-06T15:41:35;14.20;99.90
54409;DHT22;40315;48.620;9.828;2023-08-06T15:44:04;14.10;99.90
54409;DHT22;40315;48.620;9.828;2023-08-06T15:46:34;14.00;99.90
54409;DHT22;40315;48.620;9.828;2023-08-06T15:49:02;14.00;99.90
54409;DHT22;40315;48.620;9.828;2023-08-06T15:51:30;13.90;99.90
54409;DHT22;40315;48.620;9.828;2023-08-06T15:54:00;13.80;99.90
54409;DHT22;40315;48.620;9.828;2023-08-06T15:56:31;13.80;99.90
54409;DHT22;40315;48.620;9.828;2023-08-06T15:59:08;14.10;99.90
54409;DHT22;40315;48.620;9.828;2023-08-06T16:01:46;14.20;99.90
54409;DHT22;40315;48.620;9.828;2023-08-06T16:04:13;14.30;99.90
54409;DHT22;40315;48.620;9.828;2023-08-06T16:06:43;14.20;99.90
54409;DHT22;40315;48.620;9.828;2023-08-06T16:09:10;14.30;99.90
54409;DHT22;40315;48.620;9.828;2023-08-06T16:11:41;14.40;99.90
54409;DHT22;40315;48.620;9.828;2023-08-06T16:14:08;14.40;99.90
54409;DHT22;40315;48.620;9.828;2023-08-06T16:16:35;14.40;99.90
54409;DHT22;40315;48.620;9.828;2023-08-06T16:19:02;14.40;99.90
54409;DHT22;40315;48.620;9.828;2023-08-06T16:21:32;14.30;99.90
54409;DHT22;40315;48.620;9.828;2023-08-06T16:24:02;14.20;99.90
54409;DHT22;40315;48.620;9.828;2023-08-06T16:26:35;14.20;99.90
54409;DHT22;40315;48.620;9.828;2023-08-06T16:29:04;14.20;99.90
54409;DHT22;40315;48.620;9.828;2023-08-06T16:34:01;14.20;99.90
54409;DHT22;40315;48.620;9.828;2023-08-06T16:36:30;14.20;99.90
54409;DHT22;40315;48.620;9.828;2023-08-06T16:38:57;14.30;99.90
54409;DHT22;40315;48.620;9.828;2023-08-06T16:43:52;14.20;99.90
54409;DHT22;40315;48.620;9.828;2023-08-06T16:49:00;14.30;99.90
54409;DHT22;40315;48.620;9.828;2023-08-06T16:51:27;14.30;99.90
54409;DHT22;40315;48.620;9.828;2023-08-06T16:53:54;13.90;99.90
54409;DHT22;40315;48.620;9.828;2023-08-06T16:56:27;14.20;99.90
54409;DHT22;40315;48.620;9.828;2023-08-06T16:58:55;14.10;99.90
54409;DHT22;40315;48.620;9.828;2023-08-06T17:01:26;14.10;99.90
54409;DHT22;40315;48.620;9.828;2023-08-06T17:03:53;14.00;99.90
54409;DHT22;40315;48.620;9.828;2023-08-06T17:06:21;14.00;99.90
54409;DHT22;40315;48.620;9.828;2023-08-06T17:08:48;14.00;99.90
54409;DHT22;40315;48.620;9.828;2023-08-06T17:11:18;14.00;99.90
54409;DHT22;40315;48.620;9.828;2023-08-06T17:13:47;14.00;99.90
54409;DHT22;40315;48.620;9.828;2023-08-06T17:16:16;13.90;99.90
54409;DHT22;40315;48.620;9.828;2023-08-06T17:18:59;13.90;99.90
54409;DHT22;40315;48.620;9.828;2023-08-06T17:21:27;13.90;99.90
54409;DHT22;40315;48.620;9.828;2023-08-06T17:23:55;13.80;99.90
54409;DHT22;40315;48.620;9.828;2023-08-06T17:26:22;13.80;99.90
54409;DHT22;40315;48.620;9.828;2023-08-06T17:28:49;13.80;99.90
54409;DHT22;40315;48.620;9.828;2023-08-06T17:31:16;13.70;99.90
54409;DHT22;40315;48.620;9.828;2023-08-06T17:33:46;13.70;99.90
54409;DHT22;40315;48.620;9.828;2023-08-06T17:38:41;13.70;99.90
54409;DHT22;40315;48.620;9.828;2023-08-06T17:41:08;13.60;99.90
54409;DHT22;40315;48.620;9.828;2023-08-06T17:43:35;13.60;99.90
54409;DHT22;40315;48.620;9.828;2023-08-06T17:46:02;13.40;99.90
54409;DHT22;40315;48.620;9.828;2023-08-06T17:48:29;13.40;99.90
54409;DHT22;40315;48.620;9.828;2023-08-06T17:53:29;13.30;99.90